LH926 / D-AECH 7700 Squawk Report (19th of November, 2018)

Aircraft E190 Reg No. D-AECH Age N/A
Model Emb-190 Jet engines 2 First flight 08-10
Registered 26-08-10 Rollout 08-10 Delivered 26-08-10
Construction No. 19000376 Line No. N/A Series 100LR
ADSHEX 3C5468 Airline name Lufthansa Regional Owner Lufthansa Cityline
Airfield based Koln-Bonn~Nordrhein-Westfalen~D First tracked 2011-04-01 15:28:01

Flight history for D-AECH

Time Lat Lon Altitude Heading Speed Vertical Rate
2018-11-19 06:45:19 GMT 50.041153 8.554341 0 42 12 0
2018-11-19 06:45:07 GMT 50.040550 8.554194 0 340 13 0
2018-11-19 06:44:54 GMT 50.039825 8.554601 0 343 13 0
2018-11-19 06:44:43 GMT 50.039246 8.554790 0 351 11 0
2018-11-19 06:44:32 GMT 50.038673 8.555009 0 340 13 0
2018-11-19 06:44:21 GMT 50.038078 8.555386 0 340 13 0
2018-11-19 06:44:15 GMT 50.037758 8.555477 0 25 12 0
2018-11-19 06:44:05 GMT 50.037426 8.554681 0 70 17 0
2018-11-19 06:43:54 GMT 50.037151 8.553543 0 70 15 0
2018-11-19 06:43:44 GMT 50.036942 8.552652 0 67 12 0
2018-11-19 06:43:34 GMT 50.036697 8.551650 0 70 8 0
2018-11-19 06:43:20 GMT 50.036591 8.551212 0 70 6 0
2018-11-19 06:41:51 GMT 50.036488 8.550742 0 70 0 0
2018-11-19 06:41:20 GMT 50.036488 8.550741 0 70 0 0
2018-11-19 06:41:15 GMT 50.036488 8.550742 0 70 0 0
2018-11-19 06:40:10 GMT 50.036476 8.550741 0 70 0 0
2018-11-19 06:39:55 GMT 50.036476 8.550724 0 70 0 0
2018-11-19 06:38:59 GMT 50.034439 8.542159 200 69 103 64
2018-11-19 06:38:49 GMT 50.032333 8.533341 275 69 119 -576
2018-11-19 06:38:46 GMT 50.031967 8.531823 300 69 118 -640
2018-11-19 06:38:43 GMT 50.031364 8.529325 325 69 117 -640
2018-11-19 06:38:36 GMT 50.030090 8.523873 425 69 116 -640
2018-11-19 06:38:33 GMT 50.029404 8.521126 450 69 116 -576
2018-11-19 06:38:26 GMT 50.028030 8.515416 525 69 116 -704
2018-11-19 06:38:23 GMT 50.027409 8.512771 575 69 115 -704
2018-11-19 06:38:18 GMT 50.026524 8.509060 625 69 115 -640
2018-11-19 06:38:14 GMT 50.025879 8.506381 650 69 115 -640
2018-11-19 06:38:10 GMT 50.025223 8.503492 700 69 115 -704
2018-11-19 06:38:03 GMT 50.023918 8.498148 750 69 116 -640
2018-11-19 06:37:59 GMT 50.023079 8.494659 1,000 69 113 -640
2018-11-19 06:37:54 GMT 50.021961 8.490056 875 69 117 -640
2018-11-19 06:37:51 GMT 50.021530 8.488239 900 69 116 -640
2018-11-19 06:37:43 GMT 50.020008 8.481891 1,050 70 112 -640
2018-11-19 06:37:39 GMT 50.019402 8.479218 1,000 70 112 -640
2018-11-19 06:37:34 GMT 50.018372 8.475085 1,100 69 111 -640
2018-11-19 06:37:30 GMT 50.017731 8.472338 1,125 68 111 -640
2018-11-19 06:37:24 GMT 50.016609 8.467787 1,225 69 111 -576
2018-11-19 06:37:19 GMT 50.015770 8.464372 1,225 69 111 -576
2018-11-19 06:37:15 GMT 50.014893 8.460774 1,275 69 110 -640
2018-11-19 06:37:11 GMT 50.014282 8.458211 1,325 69 109 -640
2018-11-19 06:37:08 GMT 50.013748 8.456003 1,350 69 109 -640
2018-11-19 06:37:03 GMT 50.012878 8.452389 1,525 69 112 -576
2018-11-19 06:36:59 GMT 50.012100 8.449137 1,475 69 111 -640
2018-11-19 06:36:53 GMT 50.011116 8.445072 1,500 69 114 -576
2018-11-19 06:36:49 GMT 50.010277 8.441583 1,525 69 116 -576
2018-11-19 06:36:42 GMT 50.008850 8.435693 1,675 70 128 -832
2018-11-19 06:36:38 GMT 50.008091 8.432526 1,650 70 128 -832
2018-11-19 06:36:32 GMT 50.005997 8.423619 1,775 69 135 -832
2018-11-19 06:36:28 GMT 50.005997 8.423619 1,800 69 139 -768
2018-11-19 06:36:23 GMT 50.004925 8.419239 1,850 69 141 -768
2018-11-19 06:36:20 GMT 50.004177 8.416047 1,900 69 142 -896
2018-11-19 06:36:17 GMT 50.003632 8.413648 1,950 69 145 -960
2018-11-19 06:36:11 GMT 50.002075 8.407360 2,075 69 151 -832
2018-11-19 06:36:07 GMT 50.001060 8.403056 2,100 69 152 -960
2018-11-19 06:36:03 GMT 49.999943 8.398602 2,175 69 151 -832
2018-11-19 06:36:00 GMT 49.999336 8.396079 2,225 69 151 -832
2018-11-19 06:35:57 GMT 49.998505 8.392687 2,275 69 150 -832
2018-11-19 06:35:50 GMT 49.997059 8.386651 2,375 69 150 -832
2018-11-19 06:35:46 GMT 49.995941 8.382135 2,400 69 151 -832
2018-11-19 06:35:39 GMT 49.994156 8.374907 2,525 69 151 -832
2018-11-19 06:35:36 GMT 49.993332 8.371359 2,550 69 151 -896
2018-11-19 06:35:31 GMT 49.992096 8.366306 2,625 69 151 -832
2018-11-19 06:35:28 GMT 49.991379 8.363268 2,675 70 150 -832
2018-11-19 06:35:24 GMT 49.990677 8.360090 2,700 70 150 -832
2018-11-19 06:35:21 GMT 49.989796 8.356290 2,750 72 150 -704
2018-11-19 06:35:18 GMT 49.989330 8.353915 2,800 72 149 -576
2018-11-19 06:35:15 GMT 49.988354 8.349312 2,825 72 149 -576
2018-11-19 06:35:10 GMT 49.987469 8.344784 2,900 72 151 -384
2018-11-19 06:35:04 GMT 49.985977 8.337806 2,900 69 152 -64
2018-11-19 06:34:58 GMT 49.984722 8.332907 2,900 63 152 -64
2018-11-19 06:34:55 GMT 49.983627 8.329516 2,900 37 171 -192
2018-11-19 06:34:51 GMT 49.982025 8.325830 2,925 48 155 -448
2018-11-19 06:34:48 GMT 49.979691 8.321854 2,950 42 158 -512
2018-11-19 06:34:41 GMT 49.977402 8.318963 2,975 37 162 -256
2018-11-19 06:34:38 GMT 49.975296 8.316434 2,975 37 166 -128
2018-11-19 06:34:35 GMT 49.973454 8.314275 6,400 37 173 -256
2018-11-19 06:34:32 GMT 49.969162 8.309061 3,225 37 173 -256
2018-11-19 06:34:28 GMT 49.969162 8.309061 3,025 37 175 -384
2018-11-19 06:34:25 GMT 49.967262 8.306852 3,025 37 175 -384
2018-11-19 06:34:20 GMT 49.964172 8.303207 3,200 33 179 -1728
2018-11-19 06:34:17 GMT 49.961399 8.299948 6,400 35 179 -832
2018-11-19 06:34:14 GMT 49.959961 8.298292 6,400 322 234 -192
2018-11-19 06:34:10 GMT 49.957306 8.295401 3,300 34 179 -1664
2018-11-19 06:34:06 GMT 49.954559 8.292365 3,375 33 179 -1728
2018-11-19 06:34:03 GMT 49.951767 8.289546 3,450 30 180 -1600
2018-11-19 06:34:00 GMT 49.949524 8.287305 3,600 27 183 -1408
2018-11-19 06:33:57 GMT 49.947292 8.285325 3,675 26 183 -1344
2018-11-19 06:33:54 GMT 49.945908 8.284270 3,675 26 183 -1344
2018-11-19 06:33:50 GMT 49.943241 8.282652 3,725 14 189 -1152
2018-11-19 06:33:46 GMT 49.939178 8.281451 3,825 4 197 -896
2018-11-19 06:33:43 GMT 49.936447 8.281390 3,850 355 204 -640
2018-11-19 06:33:39 GMT 49.931419 8.282652 3,900 340 217 -512
2018-11-19 06:33:36 GMT 49.929321 8.283766 3,950 333 223 -320
2018-11-19 06:33:33 GMT 49.926903 8.285399 3,925 331 226 -320
2018-11-19 06:33:29 GMT 49.923889 8.288245 3,950 329 227 -256
2018-11-19 06:33:26 GMT 49.921188 8.291570 3,950 318 238 -192
2018-11-19 06:33:23 GMT 49.918571 8.295569 3,975 281 262 -896
2018-11-19 06:33:19 GMT 49.916103 8.300839 4,000 300 251 -512
2018-11-19 06:33:15 GMT 49.913589 8.308122 4,025 292 257 -640
2018-11-19 06:33:12 GMT 49.912376 8.313236 4,050 287 259 -768
2018-11-19 06:33:08 GMT 49.911076 8.325039 4,150 273 264 -960
2018-11-19 06:33:02 GMT 49.911026 8.330745 4,200 267 268 -960
2018-11-19 06:32:59 GMT 49.911541 8.338103 4,250 259 274 -1088
2018-11-19 06:32:55 GMT 49.912903 8.346285 4,350 252 279 -1088
2018-11-19 06:32:52 GMT 49.913681 8.349971 4,425 251 291 -1536
2018-11-19 06:32:49 GMT 49.914917 8.355536 4,475 251 288 -1152
2018-11-19 06:32:46 GMT 49.916473 8.362547 4,525 251 291 -1536
2018-11-19 06:32:43 GMT 49.918198 8.370023 4,575 251 292 -1344
2018-11-19 06:32:38 GMT 49.920105 8.378486 4,700 251 293 -1024
2018-11-19 06:32:35 GMT 49.921921 8.386354 4,750 251 293 -1024
2018-11-19 06:32:32 GMT 49.922745 8.390085 4,850 251 294 -1024
2018-11-19 06:32:28 GMT 49.924347 8.397169 4,825 251 294 -1024
2018-11-19 06:32:25 GMT 49.925926 8.404096 4,875 251 294 -1024
2018-11-19 06:32:21 GMT 49.927872 8.412564 4,950 251 295 -1024
2018-11-19 06:32:17 GMT 49.929657 8.420515 5,000 251 295 -1024
2018-11-19 06:32:13 GMT 49.931442 8.428176 5,075 251 296 -1024
2018-11-19 06:32:09 GMT 49.932953 8.434826 5,125 251 295 -1024
2018-11-19 06:32:05 GMT 49.934818 8.443216 5,200 251 295 -1024
2018-11-19 06:32:01 GMT 49.936935 8.452534 5,275 251 296 -960
2018-11-19 06:31:57 GMT 49.938766 8.460485 5,350 251 296 -960
2018-11-19 06:31:53 GMT 49.940598 8.468435 5,400 251 296 -1024
2018-11-19 06:31:50 GMT 49.941940 8.474393 5,525 251 296 -960
2018-11-19 06:31:47 GMT 49.943615 8.481594 5,525 251 296 -960
2018-11-19 06:31:43 GMT 49.944946 8.487517 5,550 251 296 -1024
2018-11-19 06:31:40 GMT 49.947014 8.496514 5,650 251 296 -960
2018-11-19 06:31:37 GMT 49.948132 8.501339 5,700 251 296 -1024
2018-11-19 06:31:34 GMT 49.949707 8.508261 5,750 251 296 -1024
2018-11-19 06:31:28 GMT 49.951809 8.517299 5,825 251 296 -1024
2018-11-19 06:31:25 GMT 49.954742 8.530216 5,900 242 296 -1024
2018-11-19 06:31:22 GMT 49.954742 8.530216 5,925 251 296 -960
2018-11-19 06:31:17 GMT 49.956711 8.538907 6,000 251 294 -1088
2018-11-19 06:31:14 GMT 49.958370 8.546324 6,050 251 295 -960
2018-11-19 06:31:11 GMT 49.959816 8.552634 6,100 251 294 -1088
2018-11-19 06:31:08 GMT 49.961258 8.559166 6,175 251 294 -960
2018-11-19 06:31:04 GMT 49.962887 8.566218 6,200 251 294 -960
2018-11-19 06:31:01 GMT 49.964005 8.571118 6,225 251 294 -1024
2018-11-19 06:30:58 GMT 49.965546 8.578009 6,300 251 294 -1024
2018-11-19 06:30:54 GMT 49.967743 8.587550 6,400 251 294 -1024
2018-11-19 06:30:51 GMT 49.968708 8.591828 6,975 251 294 -1024
2018-11-19 06:30:47 GMT 49.970383 8.599103 6,550 250 294 -1088
2018-11-19 06:30:44 GMT 49.971909 8.605764 6,800 242 294 -128
2018-11-19 06:30:41 GMT 49.973373 8.611980 6,600 250 294 -1024
2018-11-19 06:30:37 GMT 49.975067 8.619064 6,725 247 294 -960
2018-11-19 06:30:34 GMT 49.976807 8.625975 6,725 247 295 -960
2018-11-19 06:30:31 GMT 49.978455 8.631857 6,750 244 296 -960
2018-11-19 06:30:26 GMT 49.981522 8.641470 6,850 242 296 -1088
2018-11-19 06:30:23 GMT 49.983788 8.647948 6,925 242 296 -1024
2018-11-19 06:30:20 GMT 49.985184 8.651950 6,950 242 295 -960
2018-11-19 06:30:16 GMT 49.987980 8.659825 6,975 223 261 320
2018-11-19 06:30:13 GMT 49.990307 8.666431 7,000 242 263 128
2018-11-19 06:30:09 GMT 49.992508 8.672694 7,000 242 290 64
2018-11-19 06:30:06 GMT 49.994614 8.678693 7,000 231 264 0
2018-11-19 06:30:02 GMT 49.996902 8.685198 7,000 242 283 0
2018-11-19 06:29:59 GMT 49.998825 8.690691 7,000 242 281 -64
2018-11-19 06:29:55 GMT 50.002533 8.701244 7,000 242 272 128
2018-11-19 06:29:52 GMT 50.003155 8.703028 7,000 242 271 128
2018-11-19 06:29:49 GMT 50.004730 8.707532 7,000 242 269 128
2018-11-19 06:29:45 GMT 50.007252 8.714682 7,000 242 263 128
2018-11-19 06:29:40 GMT 50.009903 8.722133 6,975 241 262 64
2018-11-19 06:29:35 GMT 50.013062 8.730806 7,000 240 263 -128
2018-11-19 06:29:32 GMT 50.015167 8.736444 7,000 238 264 -64
2018-11-19 06:29:28 GMT 50.017273 8.741792 7,000 237 264 0
2018-11-19 06:29:24 GMT 50.020340 8.748659 7,000 231 264 128
2018-11-19 06:29:21 GMT 50.022427 8.752392 6,975 225 262 256
2018-11-19 06:29:18 GMT 50.024803 8.755955 6,975 223 261 320
2018-11-19 06:29:15 GMT 50.027939 8.759790 6,925 211 258 832
2018-11-19 06:29:12 GMT 50.031601 8.763259 6,900 203 255 896
2018-11-19 06:29:09 GMT 50.035789 8.766125 6,800 169 240 960
2018-11-19 06:29:05 GMT 50.039326 8.767758 6,675 171 242 896
2018-11-19 06:29:00 GMT 50.044693 8.768897 6,725 181 247 960
2018-11-19 06:28:57 GMT 50.047852 8.768825 6,675 169 240 960
2018-11-19 06:28:54 GMT 50.051788 8.768102 6,625 165 238 896
2018-11-19 06:28:51 GMT 50.054443 8.767090 6,550 154 232 896
2018-11-19 06:28:48 GMT 50.057373 8.765500 6,550 154 232 896
2018-11-19 06:28:45 GMT 50.061539 8.762175 6,500 145 226 768
2018-11-19 06:28:41 GMT 50.064419 8.758850 6,475 140 225 768
2018-11-19 06:28:38 GMT 50.065907 8.756697 6,425 133 222 896
2018-11-19 06:28:34 GMT 50.068817 8.751189 6,350 115 213 2048
2018-11-19 06:28:31 GMT 50.070053 8.747936 6,250 115 213 2048
2018-11-19 06:28:28 GMT 50.071774 8.742148 6,150 106 207 2368
2018-11-19 06:28:22 GMT 50.073074 8.733625 5,925 95 202 2496
2018-11-19 06:28:18 GMT 50.073303 8.728493 5,750 76 197 2560
2018-11-19 06:28:11 GMT 50.072525 8.718157 5,475 74 196 2624
2018-11-19 06:28:08 GMT 50.071774 8.714088 5,325 72 197 2880
2018-11-19 06:28:03 GMT 50.070423 8.707630 5,100 71 196 2752
2018-11-19 06:28:00 GMT 50.069687 8.704063 4,975 71 195 2752
2018-11-19 06:27:57 GMT 50.068516 8.698648 4,775 71 193 2752
2018-11-19 06:27:53 GMT 50.067535 8.694016 4,625 71 193 2880
2018-11-19 06:27:50 GMT 50.066666 8.689969 4,475 71 193 2752
2018-11-19 06:27:47 GMT 50.065979 8.686788 4,325 71 192 2880
2018-11-19 06:27:42 GMT 50.064423 8.679344 4,100 71 192 2560
2018-11-19 06:27:38 GMT 50.063187 8.673489 3,875 71 191 2560
2018-11-19 06:27:35 GMT 50.062637 8.670887 3,450 71 187 2176
2018-11-19 06:27:32 GMT 50.060303 8.660045 3,575 71 187 2176
2018-11-19 06:27:27 GMT 50.060303 8.660045 3,425 71 186 2048
2018-11-19 06:27:24 GMT 50.059715 8.657227 3,325 71 184 1984
2018-11-19 06:27:21 GMT 50.058739 8.652847 3,325 72 181 1472
2018-11-19 06:27:18 GMT 50.058086 8.649729 3,250 72 181 1472
2018-11-19 06:27:15 GMT 50.057327 8.645951 3,175 72 177 1216
2018-11-19 06:27:12 GMT 50.056458 8.641786 3,100 72 173 1408
2018-11-19 06:27:08 GMT 50.055450 8.636916 2,925 71 159 1088
2018-11-19 06:27:05 GMT 50.054829 8.633992 2,975 72 162 896
2018-11-19 06:27:02 GMT 50.053944 8.629538 2,925 71 160 960
2018-11-19 06:26:58 GMT 50.053291 8.626420 2,875 70 151 1472
2018-11-19 06:26:55 GMT 50.052200 8.621666 2,775 69 149 1536
2018-11-19 06:26:52 GMT 50.051758 8.619814 2,725 68 146 1536
2018-11-19 06:26:48 GMT 50.050827 8.616028 2,575 69 142 1600
2018-11-19 06:26:45 GMT 50.049957 8.612558 2,550 69 139 1664
2018-11-19 06:26:42 GMT 50.049362 8.610029 2,425 71 136 2048
2018-11-19 06:26:39 GMT 50.048775 8.607268 0 72 135 2432
2018-11-19 06:26:35 GMT 50.047894 8.602666 0 73 136 2752
2018-11-19 06:26:32 GMT 50.047348 8.599910 0 73 137 2688
2018-11-19 06:26:29 GMT 50.046936 8.597669 0 73 139 2496
2018-11-19 06:26:26 GMT 50.046478 8.595212 0 73 139 2368
2018-11-19 06:26:23 GMT 50.045975 8.592682 0 72 140 2176
2018-11-19 06:26:19 GMT 50.045242 8.588779 0 72 139 2112
2018-11-19 06:26:14 GMT 50.044189 8.583575 0 73 136 2688
2018-11-19 06:26:09 GMT 50.043377 8.579431 0 72 137 2816
2018-11-19 06:26:04 GMT 50.041901 8.572950 0 69 143 2496
2018-11-19 06:26:01 GMT 50.041561 8.571637 0 68 142 2304
2018-11-19 06:25:58 GMT 50.040585 8.567777 0 68 142 2752
2018-11-19 06:25:51 GMT 50.039139 8.561839 0 69 150 2432
2018-11-19 06:25:19 GMT 50.033508 8.538307 0 70 39
2018-11-19 06:25:10 GMT 50.033157 8.536793 0 75 9
2018-11-19 06:24:57 GMT 50.033146 8.536232 0 112 7

Making use of Plane Finder data

You are free to use the raw flight data, aircraft information and images provided in this report for your own purposes provided the data is correctly attributed to Plane Finder. We ask that you please credit Plane Finder and link to planefinder.net in close proximity to the content.

Optionally one of the following logos (no smaller then 150x24px) can be used and must link to planefinder.net

Embedding the Plane Finder map

You are welcome to embed the Plane Finder playback map on your website to offer visitors a more interactive experience. We suggest using the following HTML code:

<iframe src="//planefinder.net/data/report/LH926-D-AECH-7700-squawk-2018-11-19/map" width="800" height="600" seamless="seamless"></iframe>

Where our data comes from

Plane Finder has a global network of data feeds and antenna radars that receive data broadcast directly from aircraft. The primary technologies used are ADS-B and MLAT. We also show feeds from the FAA and a FLARM glider feed.

Click here to find out more about the Plane Finder network.

How we collect our data